Time;durP1;ratioP1;P1;durP2;ratioP2;P2;SDS_P1;SDS_P2;PMS_P1;PMS_P2;Temp;Humidity;BMP_temperature;BMP_pressure;BME280_temperature;BME280_humidity;BME280_pressure;Samples;Min_cycle;Max_cycle;Signal;HPM_P1;HPM_P2
2023/10/12 00:01:01;;;;;;;;;;;;;;;;;;2216308;59;2386;-17
2023/10/12 00:03:31;;;;;;;;;;;;;;;;;;2214353;59;2431;-17
2023/10/12 00:06:05;;;;;;;;;;;;;;;;;;2212166;59;2854;-17
2023/10/12 00:11:08;;;;;;;;;;;;;;;;;;2209407;59;2271;-23
2023/10/12 00:13:43;;;;;;;;;;;;;;;;;;2213582;58;3707;-23
2023/10/12 00:16:19;;;;;;;;;;;;;;;;;;2209798;66;2300;-23
2023/10/12 00:18:49;;;;;;;;;;;;;;;;;;2213068;66;2328;-23
2023/10/12 00:21:25;;;;;;;;;;;;;;;;;;2209326;66;2472;-23
2023/10/12 00:23:57;;;;;;;;;;;;;;;;;;2213861;66;2419;-23
2023/10/12 00:26:30;;;;;;;;;;;;;;;;;;2213081;58;3040;-23
2023/10/12 00:29:02;;;;;;;;;;;;;;;;;;2212884;65;2682;-23
2023/10/12 00:31:32;;;;;;;;;;;;;;;;;;2214398;59;3480;-23
2023/10/12 00:34:03;;;;;;;;;;;;;;;;;;2212793;58;2354;-23
2023/10/12 00:36:37;;;;;;;;;;;;;;;;;;2213897;66;2353;-23
2023/10/12 00:39:14;;;;;;;;;;;;;;;;;;2212699;58;2835;-23
2023/10/12 00:41:44;;;;;;;;;;;;;;;;;;2213201;58;3619;-23
2023/10/12 00:44:18;;;;;;;;;;;;;;;;;;2213527;66;2357;-23
2023/10/12 00:46:58;;;;;;;;;;;;;;;;;;2214271;58;1816;-23
2023/10/12 00:49:29;;;;;;;;;;;;;;;;;;2212581;58;2589;-23
2023/10/12 00:52:11;;;;;;;;;;;;;;;;;;2210471;59;2899;-23
2023/10/12 00:54:43;;;;;;;;;;;;;;;;;;2213935;59;3901;-23
2023/10/12 00:57:16;;;;;;;;;;;;;;;;;;2213119;59;3405;-23
2023/10/12 00:59:47;;;;;;;;;;;;;;;;;;2213933;59;2246;-23
2023/10/12 01:02:21;;;;;;;;;;;;;;;;;;2213098;66;2353;-23
2023/10/12 01:04:53;;;;;;;;;;;;;;;;;;2213507;66;2429;-23
2023/10/12 01:07:26;;;;;;;;;;;;;;;;;;2210497;59;3706;-23
2023/10/12 01:10:06;;;;;;;;;;;;;;;;;;2213750;58;2455;-23
2023/10/12 01:12:37;;;;;;;;;;;;;;;;;;2210550;59;3561;-23
2023/10/12 01:15:11;;;;;;;;;;;;;;;;;;2212982;58;2240;-23
2023/10/12 01:17:41;;;;;;;;;;;;;;;;;;2213011;58;2162;-23
2023/10/12 01:20:16;;;;;;;;;;;;;;;;;;2212351;58;2840;-23
2023/10/12 01:22:47;;;;;;;;;;;;;;;;;;2213040;66;2492;-24
2023/10/12 01:25:21;;;;;;;;;;;;;;;;;;2213434;58;3432;-23
2023/10/12 01:27:53;;;;;;;;;;;;;;;;;;2211000;66;2504;-23
2023/10/12 01:30:23;;;;;;;;;;;;;;;;;;2212976;58;3940;-23
2023/10/12 01:33:04;;;;;;;;;;;;;;;;;;2214235;66;2364;-23
2023/10/12 01:35:38;;;;;;;;;;;;;;;;;;2213940;58;3697;-23
2023/10/12 01:38:09;;;;;;;;;;;;;;;;;;2208590;66;2424;-23
2023/10/12 01:40:52;;;;;;;;;;;;;;;;;;2214041;66;2153;-23
2023/10/12 01:43:27;;;;;;;;;;;;;;;;;;2212990;66;4126;-23
2023/10/12 01:46:04;;;;;;;;;;;;;;;;;;2214302;59;1737;-23
2023/10/12 01:48:34;;;;;;;;;;;;;;;;;;2214467;66;3052;-23
2023/10/12 01:51:14;;;;;;;;;;;;;;;;;;2213766;58;3336;-23
2023/10/12 01:53:45;;;;;;;;;;;;;;;;;;2214316;59;2398;-23
2023/10/12 01:56:15;;;;;;;;;;;;;;;;;;2212922;58;3484;-23
2023/10/12 01:58:49;;;;;;;;;;;;;;;;;;2215111;58;2591;-23
2023/10/12 02:01:20;;;;;;;;;;;;;;;;;;2213177;59;2347;-23
2023/10/12 02:04:02;;;;;;;;;;;;;;;;;;2213517;66;3470;-23
2023/10/12 02:06:32;;;;;;;;;;;;;;;;;;2213415;58;3623;-23
2023/10/12 02:09:08;;;;;;;;;;;;;;;;;;2214329;66;2226;-23
2023/10/12 02:11:43;;;;;;;;;;;;;;;;;;2214390;59;2404;-23
2023/10/12 02:14:23;;;;;;;;;;;;;;;;;;2213233;59;2332;-23
2023/10/12 02:16:53;;;;;;;;;;;;;;;;;;2209907;58;2359;-23
2023/10/12 02:19:41;;;;;;;;;;;;;;;;;;2212679;58;2623;-23
2023/10/12 02:22:19;;;;;;;;;;;;;;;;;;2211759;58;3305;-23
2023/10/12 02:27:42;;;;;;;;;;;;;;;;;;2213141;58;3160;-23
2023/10/12 02:30:18;;;;;;;;;;;;;;;;;;2211628;58;3771;-23
2023/10/12 02:33:00;;;;;;;;;;;;;;;;;;2213452;58;2474;-23
2023/10/12 02:35:36;;;;;;;;;;;;;;;;;;2212601;58;3351;-23
2023/10/12 02:38:07;;;;;;;;;;;;;;;;;;2213073;66;2899;-23
2023/10/12 02:40:41;;;;;;;;;;;;;;;;;;2208578;59;2604;-23
2023/10/12 02:43:11;;;;;;;;;;;;;;;;;;2211171;66;2861;-23
2023/10/12 02:45:42;;;;;;;;;;;;;;;;;;2212966;59;3223;-23
2023/10/12 02:48:23;;;;;;;;;;;;;;;;;;2210742;66;2600;-23
2023/10/12 02:51:01;;;;;;;;;;;;;;;;;;2213176;58;2533;-23
2023/10/12 02:53:31;;;;;;;;;;;;;;;;;;2209050;66;3301;-23
2023/10/12 02:56:01;;;;;;;;;;;;;;;;;;2212845;66;2998;-23
2023/10/12 02:58:35;;;;;;;;;;;;;;;;;;2212567;66;3508;-23
2023/10/12 03:01:21;;;;;;;;;;;;;;;;;;2212769;66;2982;-23
2023/10/12 03:03:54;;;;;;;;;;;;;;;;;;2210113;66;2389;-23
2023/10/12 03:06:32;;;;;;;;;;;;;;;;;;2212168;58;2847;-23
2023/10/12 03:09:13;;;;;;;;;;;;;;;;;;2213222;66;3140;-23
2023/10/12 03:11:44;;;;;;;;;;;;;;;;;;2212949;59;3007;-23
2023/10/12 03:14:26;;;;;;;;;;;;;;;;;;2212549;59;3017;-23
2023/10/12 03:17:03;;;;;;;;;;;;;;;;;;2213313;66;2926;-23
2023/10/12 03:19:36;;;;;;;;;;;;;;;;;;2212754;58;2917;-23
2023/10/12 03:22:52;;;;;;;;;;;;;;;;;;2209897;66;2525;-23
2023/10/12 03:25:19;;;;;;;;;;;;;;;;;;2211828;58;2182;-23
2023/10/12 03:27:53;;;;;;;;;;;;;;;;;;2214115;58;2009;-23
2023/10/12 03:30:34;;;;;;;;;;;;;;;;;;2212284;58;3305;-23
2023/10/12 03:33:09;;;;;;;;;;;;;;;;;;2211865;59;4116;-23
2023/10/12 03:35:58;;;;;;;;;;;;;;;;;;2213776;58;2015;-23
2023/10/12 03:38:33;;;;;;;;;;;;;;;;;;2212662;66;3518;-23
2023/10/12 03:44:05;;;;;;;;;;;;;;;;;;2214038;66;4920;-23
2023/10/12 03:46:45;;;;;;;;;;;;;;;;;;2209553;59;3121;-23
2023/10/12 03:49:32;;;;;;;;;;;;;;;;;;2213527;58;2546;-23
2023/10/12 03:52:13;;;;;;;;;;;;;;;;;;2214115;58;2379;-23
2023/10/12 03:54:55;;;;;;;;;;;;;;;;;;2213694;66;2673;-23
2023/10/12 04:02:53;;;;;;;;;;;;;;;;;;2213402;66;2712;-23
2023/10/12 04:08:00;;;;;;;;;;;;;;;;;;2210112;66;1823;-23
2023/10/12 04:21:33;;;;;;;;;;;;;;;;;;2213579;58;3730;-23
2023/10/12 04:27:11;;;;;;;;;;;;;;;;;;2214166;58;3638;-23
2023/10/12 04:29:41;;;;;;;;;;;;;;;;;;2212426;66;3454;-22
2023/10/12 04:32:15;;;;;;;;;;;;;;;;;;2213664;58;3460;-23
2023/10/12 04:34:50;;;;;;;;;;;;;;;;;;2214093;58;2459;-23
2023/10/12 04:37:25;;;;;;;;;;;;;;;;;;2212405;58;2189;-23
2023/10/12 04:40:14;;;;;;;;;;;;;;;;;;2211123;59;3735;-23
2023/10/12 04:42:46;;;;;;;;;;;;;;;;;;2213431;58;2320;-23
2023/10/12 04:48:17;;;;;;;;;;;;;;;;;;2213834;66;2894;-23
2023/10/12 04:50:44;;;;;;;;;;;;;;;;;;2210563;59;2435;-23
2023/10/12 04:53:18;;;;;;;;;;;;;;;;;;2213974;58;3467;-23
2023/10/12 04:55:57;;;;;;;;;;;;;;;;;;2211881;66;3144;-23
2023/10/12 05:01:14;;;;;;;;;;;;;;;;;;2211304;66;2306;-23
2023/10/12 05:04:05;;;;;;;;;;;;;;;;;;2213672;66;3505;-23
2023/10/12 05:06:46;;;;;;;;;;;;;;;;;;2213166;58;2235;-23
2023/10/12 05:09:18;;;;;;;;;;;;;;;;;;2209479;58;2623;-23
2023/10/12 05:11:48;;;;;;;;;;;;;;;;;;2214581;59;3877;-23
2023/10/12 05:14:19;;;;;;;;;;;;;;;;;;2210286;59;2982;-23
2023/10/12 05:16:51;;;;;;;;;;;;;;;;;;2211672;59;2256;-23
2023/10/12 05:19:24;;;;;;;;;;;;;;;;;;2212906;58;2814;-23
2023/10/12 05:21:58;;;;;;;;;;;;;;;;;;2214965;58;3385;-23
2023/10/12 05:24:32;;;;;;;;;;;;;;;;;;2209978;59;2286;-23
2023/10/12 05:27:23;;;;;;;;;;;;;;;;;;2210569;66;3779;-23
2023/10/12 05:29:59;;;;;;;;;;;;;;;;;;2214492;58;2476;-23
2023/10/12 05:32:43;;;;;;;;;;;;;;;;;;2209831;59;3402;-23
2023/10/12 05:35:16;;;;;;;;;;;;;;;;;;2210822;59;2610;-23
2023/10/12 05:37:49;;;;;;;;;;;;;;;;;;2213300;59;2899;-23
2023/10/12 05:40:20;;;;;;;;;;;;;;;;;;2213408;58;2630;-23
2023/10/12 05:42:50;;;;;;;;;;;;;;;;;;2213421;58;3417;-23
2023/10/12 05:45:31;;;;;;;;;;;;;;;;;;2212629;58;2698;-23
2023/10/12 05:48:01;;;;;;;;;;;;;;;;;;2212366;66;2208;-23
2023/10/12 05:50:34;;;;;;;;;;;;;;;;;;2213054;58;2573;-23
2023/10/12 05:53:07;;;;;;;;;;;;;;;;;;2213890;58;2404;-23
2023/10/12 05:55:40;;;;;;;;;;;;;;;;;;2212789;58;4074;-23
2023/10/12 05:58:11;;;;;;;;;;;;;;;;;;2213926;59;2559;-23
2023/10/12 06:00:44;;;;;;;;;;;;;;;;;;2212551;66;2524;-23
2023/10/12 06:03:20;;;;;;;;;;;;;;;;;;2213819;66;2685;-23
2023/10/12 06:05:51;;;;;;;;;;;;;;;;;;2214261;58;2205;-23
2023/10/12 06:08:25;;;;;;;;;;;;;;;;;;2208922;66;2984;-23
2023/10/12 06:10:55;;;;;;;;;;;;;;;;;;2214199;58;2971;-23
2023/10/12 06:13:32;;;;;;;;;;;;;;;;;;2212912;58;4031;-23
2023/10/12 06:16:02;;;;;;;;;;;;;;;;;;2213894;58;2724;-23
2023/10/12 06:18:37;;;;;;;;;;;;;;;;;;2213437;58;3757;-23
2023/10/12 06:21:07;;;;;;;;;;;;;;;;;;2214455;58;2135;-23
2023/10/12 06:23:39;;;;;;;;;;;;;;;;;;2214118;66;2698;-23
2023/10/12 06:26:17;;;;;;;;;;;;;;;;;;2214296;58;2925;-23
2023/10/12 06:28:50;;;;;;;;;;;;;;;;;;2212901;58;3747;-23
2023/10/12 06:31:21;;;;;;;;;;;;;;;;;;2213606;58;2859;-23
2023/10/12 06:33:59;;;;;;;;;;;;;;;;;;2214338;58;2530;-23
2023/10/12 06:36:38;;;;;;;;;;;;;;;;;;2211475;58;3612;-23
2023/10/12 06:44:25;;;;;;;;;;;;;;;;;;2213672;58;3688;-23
2023/10/12 06:47:02;;;;;;;;;;;;;;;;;;2213563;58;3193;-23
2023/10/12 06:49:33;;;;;;;;;;;;;;;;;;2212478;58;2332;-23
2023/10/12 06:52:03;;;;;;;;;;;;;;;;;;2213842;58;2272;-23
2023/10/12 06:54:49;;;;;;;;;;;;;;;;;;2207955;58;2427;-24
2023/10/12 07:02:45;;;;;;;;;;;;;;;;;;2207391;66;2469;-23
2023/10/12 07:05:20;;;;;;;;;;;;;;;;;;2213633;58;4008;-23
2023/10/12 07:07:51;;;;;;;;;;;;;;;;;;2210281;59;2536;-23
2023/10/12 07:10:28;;;;;;;;;;;;;;;;;;2212389;58;2730;-24
2023/10/12 07:13:00;;;;;;;;;;;;;;;;;;2214052;58;2715;-24
2023/10/12 07:15:40;;;;;;;;;;;;;;;;;;2208890;59;2638;-24
2023/10/12 07:18:15;;;;;;;;;;;;;;;;;;2210971;59;4057;-24
2023/10/12 07:20:46;;;;;;;;;;;;;;;;;;2212905;58;2621;-24
2023/10/12 07:23:20;;;;;;;;;;;;;;;;;;2213882;58;4458;-24
2023/10/12 07:25:51;;;;;;;;;;;;;;;;;;2212280;59;2533;-24
2023/10/12 07:28:33;;;;;;;;;;;;;;;;;;2211517;59;3032;-24
2023/10/12 07:33:59;;;;;;;;;;;;;;;;;;2211447;58;2889;-24
2023/10/12 07:42:00;;;;;;;;;;;;;;;;;;2213079;66;2601;-24
2023/10/12 07:44:39;;;;;;;;;;;;;;;;;;2213279;59;2405;-24
2023/10/12 07:47:14;;;;;;;;;;;;;;;;;;2213546;58;2350;-24
2023/10/12 07:49:57;;;;;;;;;;;;;;;;;;2212706;58;3380;-24
2023/10/12 07:55:41;;;;;;;;;;;;;;;;;;2201509;59;2293;-22
2023/10/12 07:58:12;;;;;;;;;;;;;;;;;;2211766;58;2650;-22
2023/10/12 08:00:51;;;;;;;;;;;;;;;;;;2211396;66;2837;-22
2023/10/12 08:03:25;;;;;;;;;;;;;;;;;;2212406;59;2508;-22
2023/10/12 08:06:07;;;;;;;;;;;;;;;;;;2211788;58;3692;-22
2023/10/12 08:08:37;;;;;;;;;;;;;;;;;;2208329;59;4329;-22
2023/10/12 08:11:28;;;;;;;;;;;;;;;;;;2209610;58;2625;-22
2023/10/12 08:14:09;;;;;;;;;;;;;;;;;;2209746;59;2820;-22
2023/10/12 08:16:40;;;;;;;;;;;;;;;;;;2213505;58;2438;-22
2023/10/12 08:19:23;;;;;;;;;;;;;;;;;;2212387;58;3717;-22
2023/10/12 08:21:58;;;;;;;;;;;;;;;;;;2211527;58;2885;-22
2023/10/12 08:24:35;;;;;;;;;;;;;;;;;;2210064;59;2973;-22
2023/10/12 08:27:06;;;;;;;;;;;;;;;;;;2213269;58;2658;-22
2023/10/12 08:37:17;;;;;;;;;;;;;;;;;;2213266;66;4128;-23
2023/10/12 08:39:54;;;;;;;;;;;;;;;;;;2208716;59;2462;-23
2023/10/12 08:45:09;;;;;;;;;;;;;;;;;;2214487;58;2358;-23
2023/10/12 08:47:49;;;;;;;;;;;;;;;;;;2212365;58;2776;-23
2023/10/12 08:52:50;;;;;;;;;;;;;;;;;;2213292;59;3287;-23
2023/10/12 08:55:24;;;;;;;;;;;;;;;;;;2210755;58;3675;-23
2023/10/12 08:58:04;;;;;;;;;;;;;;;;;;2212024;58;3462;-23
2023/10/12 09:06:00;;;;;;;;;;;;;;;;;;2211946;58;4045;-23
2023/10/12 09:11:13;;;;;;;;;;;;;;;;;;2216343;53;4938;-23
2023/10/12 09:13:45;;;;;;;;;;;;;;;;;;2211834;58;3523;-23
2023/10/12 09:16:15;;;;;;;;;;;;;;;;;;2211940;58;3450;-24
2023/10/12 09:18:57;;;;;;;;;;;;;;;;;;2208456;58;2931;-23
2023/10/12 09:21:38;;;;;;;;;;;;;;;;;;2203050;59;3551;-23
2023/10/12 09:25:26;;;;;;;;;;;;;;;;;;2207811;59;3606;-23
2023/10/12 09:27:12;;;;;;;;;;;;;;;;;;2206652;59;2663;-24
2023/10/12 09:30:05;;;;;;;;;;;;;;;;;;2206903;59;3216;-24
2023/10/12 09:32:46;;;;;;;;;;;;;;;;;;2207538;59;2255;-24
2023/10/12 09:35:23;;;;;;;;;;;;;;;;;;2209023;59;3585;-24
2023/10/12 09:37:53;;;;;;;;;;;;;;;;;;2208743;59;3681;-23
2023/10/12 09:40:24;;;;;;;;;;;;;;;;;;2210994;59;2742;-23
2023/10/12 09:42:59;;;;;;;;;;;;;;;;;;2209121;59;2309;-23
2023/10/12 09:45:34;;;;;;;;;;;;;;;;;;2207253;59;3785;-23
2023/10/12 09:48:05;;;;;;;;;;;;;;;;;;2208365;59;2404;-23
2023/10/12 09:50:36;;;;;;;;;;;;;;;;;;2207771;59;2810;-23
2023/10/12 09:53:22;;;;;;;;;;;;;;;;;;2209660;59;3631;-23
2023/10/12 09:56:15;;;;;;;;;;;;;;;;;;2207781;59;3011;-24
2023/10/12 09:58:52;;;;;;;;;;;;;;;;;;2205744;58;2861;-23
2023/10/12 10:01:29;;;;;;;;;;;;;;;;;;2208919;66;3060;-23
2023/10/12 10:04:27;;;;;;;;;;;;;;;;;;2207500;59;2727;-23
2023/10/12 10:07:17;;;;;;;;;;;;;;;;;;2206063;59;2978;-23
2023/10/12 10:09:49;;;;;;;;;;;;;;;;;;2206396;59;3368;-23
2023/10/12 10:12:21;;;;;;;;;;;;;;;;;;2209450;59;2744;-23
2023/10/12 10:15:00;;;;;;;;;;;;;;;;;;2206942;59;3667;-24
2023/10/12 10:17:52;;;;;;;;;;;;;;;;;;2208121;59;2929;-24
2023/10/12 10:22:56;;;;;;;;;;;;;;;;;;2207208;59;3257;-24
2023/10/12 10:25:33;;;;;;;;;;;;;;;;;;2209337;59;3344;-23
2023/10/12 10:28:09;;;;;;;;;;;;;;;;;;2208556;59;2971;-23
2023/10/12 10:30:41;;;;;;;;;;;;;;;;;;2207236;59;3662;-24
2023/10/12 10:33:17;;;;;;;;;;;;;;;;;;2209493;66;2921;-24
2023/10/12 10:35:56;;;;;;;;;;;;;;;;;;2207600;59;3647;-24
2023/10/12 10:38:32;;;;;;;;;;;;;;;;;;2208976;59;2652;-24
2023/10/12 10:41:22;;;;;;;;;;;;;;;;;;2209053;59;3894;-24
2023/10/12 10:43:53;;;;;;;;;;;;;;;;;;2208542;59;3881;-24
2023/10/12 10:46:26;;;;;;;;;;;;;;;;;;2208949;59;2803;-24
2023/10/12 10:48:56;;;;;;;;;;;;;;;;;;2208994;59;2593;-24
2023/10/12 10:51:32;;;;;;;;;;;;;;;;;;2210317;59;3822;-24
2023/10/12 10:54:03;;;;;;;;;;;;;;;;;;2209421;58;2622;-24
2023/10/12 10:56:38;;;;;;;;;;;;;;;;;;2208386;66;3821;-24
2023/10/12 10:59:12;;;;;;;;;;;;;;;;;;2209275;59;2653;-24
2023/10/12 11:01:49;;;;;;;;;;;;;;;;;;2208573;66;2381;-25
2023/10/12 11:07:11;;;;;;;;;;;;;;;;;;2210150;59;2150;-24
2023/10/12 11:12:23;;;;;;;;;;;;;;;;;;2210334;59;2441;-24
2023/10/12 11:15:07;;;;;;;;;;;;;;;;;;2209383;59;2599;-24
2023/10/12 11:17:43;;;;;;;;;;;;;;;;;;2208136;59;3994;-24
2023/10/12 11:20:27;;;;;;;;;;;;;;;;;;2210264;59;2845;-24
2023/10/12 11:23:03;;;;;;;;;;;;;;;;;;2207526;59;3592;-24
2023/10/12 11:25:39;;;;;;;;;;;;;;;;;;2210301;66;3456;-24
2023/10/12 11:28:18;;;;;;;;;;;;;;;;;;2209464;66;2526;-24
2023/10/12 11:30:51;;;;;;;;;;;;;;;;;;2209305;59;3542;-24
2023/10/12 11:33:27;;;;;;;;;;;;;;;;;;2210107;66;2189;-24
2023/10/12 11:36:04;;;;;;;;;;;;;;;;;;2209858;59;3040;-24
2023/10/12 11:38:34;;;;;;;;;;;;;;;;;;2210454;66;3380;-24
2023/10/12 11:41:16;;;;;;;;;;;;;;;;;;2209142;66;2666;-22
2023/10/12 11:43:49;;;;;;;;;;;;;;;;;;2209033;66;2842;-22
2023/10/12 11:46:20;;;;;;;;;;;;;;;;;;2209393;59;2224;-22
2023/10/12 11:49:01;;;;;;;;;;;;;;;;;;2208244;59;2921;-22
2023/10/12 11:51:31;;;;;;;;;;;;;;;;;;2210627;59;4757;-22
2023/10/12 11:54:05;;;;;;;;;;;;;;;;;;2209505;66;3071;-22
2023/10/12 11:56:43;;;;;;;;;;;;;;;;;;2210798;66;2810;-22
2023/10/12 11:59:22;;;;;;;;;;;;;;;;;;2210212;66;3485;-22
2023/10/12 12:01:56;;;;;;;;;;;;;;;;;;2209009;66;2852;-22
2023/10/12 12:04:39;;;;;;;;;;;;;;;;;;2210310;66;3459;-22
2023/10/12 12:07:10;;;;;;;;;;;;;;;;;;2210218;59;2277;-22
2023/10/12 12:09:40;;;;;;;;;;;;;;;;;;2208986;66;2253;-22
2023/10/12 12:12:16;;;;;;;;;;;;;;;;;;2210156;59;2585;-22
2023/10/12 12:14:46;;;;;;;;;;;;;;;;;;2208969;59;2409;-22
2023/10/12 12:17:17;;;;;;;;;;;;;;;;;;2210464;59;2971;-22
2023/10/12 12:19:47;;;;;;;;;;;;;;;;;;2206961;58;3414;-22
2023/10/12 12:22:23;;;;;;;;;;;;;;;;;;2210359;59;3462;-22
2023/10/12 12:24:57;;;;;;;;;;;;;;;;;;2206994;59;3044;-22
2023/10/12 12:27:39;;;;;;;;;;;;;;;;;;2210319;59;2580;-22
2023/10/12 12:30:23;;;;;;;;;;;;;;;;;;2210436;59;2500;-22
2023/10/12 12:33:03;;;;;;;;;;;;;;;;;;2209615;59;2424;-22
2023/10/12 12:35:36;;;;;;;;;;;;;;;;;;2210771;59;2295;-22
2023/10/12 12:38:07;;;;;;;;;;;;;;;;;;2209008;59;3752;-22
2023/10/12 12:40:44;;;;;;;;;;;;;;;;;;2209418;59;4229;-22
2023/10/12 12:43:15;;;;;;;;;;;;;;;;;;2209348;59;2550;-22
2023/10/12 12:45:45;;;;;;;;;;;;;;;;;;2208593;59;1781;-22
2023/10/12 12:48:16;;;;;;;;;;;;;;;;;;2208630;59;2518;-21
2023/10/12 12:50:48;;;;;;;;;;;;;;;;;;2208450;59;3370;-21
2023/10/12 12:53:20;;;;;;;;;;;;;;;;;;2209986;59;3158;-24
2023/10/12 12:55:51;;;;;;;;;;;;;;;;;;2207084;59;2768;-24
2023/10/12 12:58:23;;;;;;;;;;;;;;;;;;2209958;59;2600;-24
2023/10/12 13:00:54;;;;;;;;;;;;;;;;;;2207266;66;2652;-24
2023/10/12 13:03:25;;;;;;;;;;;;;;;;;;2209932;66;2333;-24
2023/10/12 13:05:55;;;;;;;;;;;;;;;;;;2207867;59;2846;-24
2023/10/12 13:08:25;;;;;;;;;;;;;;;;;;2209038;66;2494;-24
2023/10/12 13:10:57;;;;;;;;;;;;;;;;;;2207390;59;3157;-24
2023/10/12 13:13:27;;;;;;;;;;;;;;;;;;2209286;66;2867;-24
2023/10/12 13:15:57;;;;;;;;;;;;;;;;;;2208603;59;4115;-24
2023/10/12 13:18:29;;;;;;;;;;;;;;;;;;2209376;59;2383;-24
2023/10/12 13:21:00;;;;;;;;;;;;;;;;;;2207776;58;3038;-24
2023/10/12 13:23:30;;;;;;;;;;;;;;;;;;2208959;59;2876;-24
2023/10/12 13:26:10;;;;;;;;;;;;;;;;;;2205953;58;3640;-24
2023/10/12 13:28:41;;;;;;;;;;;;;;;;;;2207581;59;4020;-24
2023/10/12 13:31:12;;;;;;;;;;;;;;;;;;2208120;59;4134;-24
2023/10/12 13:33:42;;;;;;;;;;;;;;;;;;2208594;59;2702;-24
2023/10/12 13:36:12;;;;;;;;;;;;;;;;;;2209220;59;3054;-24
2023/10/12 13:38:43;;;;;;;;;;;;;;;;;;2207467;66;3550;-24
2023/10/12 13:41:13;;;;;;;;;;;;;;;;;;2208797;60;2592;-24
2023/10/12 13:43:48;;;;;;;;;;;;;;;;;;2207469;59;2488;-24
2023/10/12 13:46:18;;;;;;;;;;;;;;;;;;2209686;59;2450;-24
2023/10/12 13:48:49;;;;;;;;;;;;;;;;;;2206949;59;2821;-24
2023/10/12 13:51:20;;;;;;;;;;;;;;;;;;2209720;59;3614;-24
2023/10/12 13:53:53;;;;;;;;;;;;;;;;;;2207988;59;3057;-24
2023/10/12 13:56:28;;;;;;;;;;;;;;;;;;2209202;59;2253;-24
2023/10/12 13:58:58;;;;;;;;;;;;;;;;;;2207204;59;2486;-24
2023/10/12 14:01:36;;;;;;;;;;;;;;;;;;2209701;59;3107;-24
2023/10/12 14:04:28;;;;;;;;;;;;;;;;;;2208226;66;3338;-24
2023/10/12 14:07:05;;;;;;;;;;;;;;;;;;2207870;59;3008;-24
2023/10/12 14:09:35;;;;;;;;;;;;;;;;;;2210048;59;2337;-24
2023/10/12 14:12:06;;;;;;;;;;;;;;;;;;2207083;59;3461;-24
2023/10/12 14:14:36;;;;;;;;;;;;;;;;;;2209028;59;2707;-24
2023/10/12 14:17:07;;;;;;;;;;;;;;;;;;2206898;58;2921;-24
2023/10/12 14:19:37;;;;;;;;;;;;;;;;;;2209443;59;2522;-24
2023/10/12 14:22:08;;;;;;;;;;;;;;;;;;2207906;59;2504;-24
2023/10/12 14:24:38;;;;;;;;;;;;;;;;;;2208514;59;2441;-24
2023/10/12 14:27:08;;;;;;;;;;;;;;;;;;2206258;59;3629;-24
2023/10/12 14:29:39;;;;;;;;;;;;;;;;;;2208959;59;3347;-24
2023/10/12 14:32:09;;;;;;;;;;;;;;;;;;2207553;59;3383;-24
2023/10/12 14:34:41;;;;;;;;;;;;;;;;;;2209163;59;2454;-24
2023/10/12 14:37:14;;;;;;;;;;;;;;;;;;2206709;66;3004;-24
2023/10/12 14:39:44;;;;;;;;;;;;;;;;;;2208589;59;2534;-24
2023/10/12 14:42:16;;;;;;;;;;;;;;;;;;2207412;66;2682;-24
2023/10/12 14:44:48;;;;;;;;;;;;;;;;;;2208433;59;2924;-24
2023/10/12 14:47:18;;;;;;;;;;;;;;;;;;2209177;66;2786;-24
2023/10/12 14:49:50;;;;;;;;;;;;;;;;;;2205817;59;3116;-24
2023/10/12 14:52:22;;;;;;;;;;;;;;;;;;2207789;59;2886;-24
2023/10/12 14:54:54;;;;;;;;;;;;;;;;;;2206603;66;2875;-24
2023/10/12 14:57:24;;;;;;;;;;;;;;;;;;2208053;59;2791;-24
2023/10/12 14:59:55;;;;;;;;;;;;;;;;;;2207502;59;3371;-24
2023/10/12 15:02:27;;;;;;;;;;;;;;;;;;2210144;59;3330;-24
2023/10/12 15:04:57;;;;;;;;;;;;;;;;;;2204281;59;2656;-24
2023/10/12 15:07:28;;;;;;;;;;;;;;;;;;2208559;59;2887;-24
2023/10/12 15:09:58;;;;;;;;;;;;;;;;;;2206527;58;2158;-24
2023/10/12 15:12:28;;;;;;;;;;;;;;;;;;2209575;59;1879;-23
2023/10/12 15:15:00;;;;;;;;;;;;;;;;;;2206779;59;2958;-23
2023/10/12 15:17:31;;;;;;;;;;;;;;;;;;2210480;59;1985;-24
2023/10/12 15:20:02;;;;;;;;;;;;;;;;;;2206080;58;2964;-24
2023/10/12 15:22:35;;;;;;;;;;;;;;;;;;2208315;59;2505;-24
2023/10/12 15:25:07;;;;;;;;;;;;;;;;;;2206486;58;2885;-24
2023/10/12 15:27:37;;;;;;;;;;;;;;;;;;2204780;59;3415;-24
2023/10/12 15:30:10;;;;;;;;;;;;;;;;;;2205394;59;4664;-24
2023/10/12 15:32:42;;;;;;;;;;;;;;;;;;2209073;59;2776;-24
2023/10/12 15:35:12;;;;;;;;;;;;;;;;;;2207117;59;2356;-24
2023/10/12 15:37:45;;;;;;;;;;;;;;;;;;2206853;59;3680;-24
2023/10/12 15:40:25;;;;;;;;;;;;;;;;;;2205766;59;2918;-24
2023/10/12 15:42:57;;;;;;;;;;;;;;;;;;2205725;59;2931;-24
2023/10/12 15:45:28;;;;;;;;;;;;;;;;;;2207665;66;2964;-24
2023/10/12 15:47:58;;;;;;;;;;;;;;;;;;2206119;66;2484;-24
2023/10/12 15:50:29;;;;;;;;;;;;;;;;;;2208006;59;2682;-24
2023/10/12 15:52:59;;;;;;;;;;;;;;;;;;2207890;59;4300;-24
2023/10/12 15:55:30;;;;;;;;;;;;;;;;;;2208767;59;2430;-24
2023/10/12 15:58:01;;;;;;;;;;;;;;;;;;2207754;59;2405;-24
2023/10/12 16:00:31;;;;;;;;;;;;;;;;;;2208844;59;2471;-24
2023/10/12 16:03:06;;;;;;;;;;;;;;;;;;2207619;59;2723;-24
2023/10/12 16:05:37;;;;;;;;;;;;;;;;;;2209481;66;2753;-24
2023/10/12 16:08:16;;;;;;;;;;;;;;;;;;2207519;66;2383;-24
2023/10/12 16:10:48;;;;;;;;;;;;;;;;;;2208652;59;2868;-24
2023/10/12 16:13:19;;;;;;;;;;;;;;;;;;2208607;59;2769;-24
2023/10/12 16:15:54;;;;;;;;;;;;;;;;;;2208621;59;3995;-24
2023/10/12 16:18:25;;;;;;;;;;;;;;;;;;2207876;59;2996;-24
2023/10/12 16:20:55;;;;;;;;;;;;;;;;;;2208009;58;3013;-24
2023/10/12 16:23:26;;;;;;;;;;;;;;;;;;2210096;59;2780;-23
2023/10/12 16:25:56;;;;;;;;;;;;;;;;;;2207461;59;2738;-23
2023/10/12 16:28:29;;;;;;;;;;;;;;;;;;2208218;59;3122;-23
2023/10/12 16:31:01;;;;;;;;;;;;;;;;;;2206251;59;4307;-23
2023/10/12 16:33:32;;;;;;;;;;;;;;;;;;2209884;59;2830;-23
2023/10/12 16:36:11;;;;;;;;;;;;;;;;;;2208618;59;3878;-23
2023/10/12 16:38:42;;;;;;;;;;;;;;;;;;2210998;59;3815;-23
2023/10/12 16:41:15;;;;;;;;;;;;;;;;;;2206717;59;3933;-23
2023/10/12 16:43:47;;;;;;;;;;;;;;;;;;2210664;59;2525;-23
2023/10/12 16:46:18;;;;;;;;;;;;;;;;;;2207753;59;3874;-23
2023/10/12 16:48:49;;;;;;;;;;;;;;;;;;2208652;59;2959;-23
2023/10/12 16:51:20;;;;;;;;;;;;;;;;;;2209666;59;4002;-23
2023/10/12 16:53:50;;;;;;;;;;;;;;;;;;2209512;59;3618;-23
2023/10/12 16:56:20;;;;;;;;;;;;;;;;;;2209903;59;2690;-23
2023/10/12 16:58:51;;;;;;;;;;;;;;;;;;2209894;59;2437;-23
2023/10/12 17:01:21;;;;;;;;;;;;;;;;;;2209230;66;2862;-23
2023/10/12 17:03:51;;;;;;;;;;;;;;;;;;2210932;59;2290;-23
2023/10/12 17:06:22;;;;;;;;;;;;;;;;;;2208449;59;3214;-23
2023/10/12 17:08:53;;;;;;;;;;;;;;;;;;2207257;59;2825;-23
2023/10/12 17:11:25;;;;;;;;;;;;;;;;;;2207262;59;3880;-23
2023/10/12 17:13:55;;;;;;;;;;;;;;;;;;2210484;59;3852;-23
2023/10/12 17:16:30;;;;;;;;;;;;;;;;;;2210488;66;2468;-24
2023/10/12 17:19:03;;;;;;;;;;;;;;;;;;2208274;59;2406;-23
2023/10/12 17:21:33;;;;;;;;;;;;;;;;;;2209770;58;2525;-24
2023/10/12 17:24:05;;;;;;;;;;;;;;;;;;2210143;59;2552;-23
2023/10/12 17:26:35;;;;;;;;;;;;;;;;;;2208616;59;2167;-23
2023/10/12 17:29:05;;;;;;;;;;;;;;;;;;2206647;59;3711;-24
2023/10/12 17:31:37;;;;;;;;;;;;;;;;;;2209813;59;2610;-24
2023/10/12 17:34:07;;;;;;;;;;;;;;;;;;2209026;59;3346;-24
2023/10/12 17:36:37;;;;;;;;;;;;;;;;;;2209134;66;3490;-24
2023/10/12 17:39:17;;;;;;;;;;;;;;;;;;2209248;59;3072;-23
2023/10/12 17:41:48;;;;;;;;;;;;;;;;;;2210265;58;2767;-24
2023/10/12 17:44:18;;;;;;;;;;;;;;;;;;2208576;59;2307;-24
2023/10/12 17:46:49;;;;;;;;;;;;;;;;;;2210172;66;2264;-24
2023/10/12 17:49:21;;;;;;;;;;;;;;;;;;2209303;59;2744;-24
2023/10/12 17:51:52;;;;;;;;;;;;;;;;;;2209243;66;1874;-24
2023/10/12 17:54:22;;;;;;;;;;;;;;;;;;2209303;66;2852;-24
2023/10/12 17:56:53;;;;;;;;;;;;;;;;;;2209653;59;2165;-24
2023/10/12 17:59:23;;;;;;;;;;;;;;;;;;2209430;66;2647;-24
2023/10/12 18:01:54;;;;;;;;;;;;;;;;;;2210066;66;3450;-24
2023/10/12 18:04:24;;;;;;;;;;;;;;;;;;2209325;59;3122;-24
2023/10/12 18:06:55;;;;;;;;;;;;;;;;;;2210343;59;2305;-24
2023/10/12 18:09:25;;;;;;;;;;;;;;;;;;2208820;66;2491;-23
2023/10/12 18:11:56;;;;;;;;;;;;;;;;;;2210813;59;2763;-24
2023/10/12 18:14:26;;;;;;;;;;;;;;;;;;2209777;59;2810;-24
2023/10/12 18:16:56;;;;;;;;;;;;;;;;;;2209484;59;2927;-24
2023/10/12 18:19:26;;;;;;;;;;;;;;;;;;2208862;58;3460;-24
2023/10/12 18:21:57;;;;;;;;;;;;;;;;;;2210545;59;2541;-24
2023/10/12 18:24:27;;;;;;;;;;;;;;;;;;2208958;59;2865;-24
2023/10/12 18:26:58;;;;;;;;;;;;;;;;;;2209534;59;2726;-23
2023/10/12 18:29:28;;;;;;;;;;;;;;;;;;2205516;59;2959;-23
2023/10/12 18:31:59;;;;;;;;;;;;;;;;;;2208892;59;2385;-24
2023/10/12 18:34:30;;;;;;;;;;;;;;;;;;2209133;59;3389;-24
2023/10/12 18:37:19;;;;;;;;;;;;;;;;;;2208770;59;2420;-24
2023/10/12 18:39:51;;;;;;;;;;;;;;;;;;2210458;59;2834;-24
2023/10/12 18:42:21;;;;;;;;;;;;;;;;;;2208900;59;3475;-24
2023/10/12 18:44:51;;;;;;;;;;;;;;;;;;2210633;59;2828;-24
2023/10/12 18:47:27;;;;;;;;;;;;;;;;;;2207483;59;2619;-24
2023/10/12 18:49:57;;;;;;;;;;;;;;;;;;2207886;59;2459;-24
2023/10/12 18:52:30;;;;;;;;;;;;;;;;;;2207777;59;2925;-24
2023/10/12 18:55:01;;;;;;;;;;;;;;;;;;2208942;59;3795;-24
2023/10/12 18:57:32;;;;;;;;;;;;;;;;;;2209116;59;3532;-24
2023/10/12 19:00:12;;;;;;;;;;;;;;;;;;2207966;66;2589;-24
2023/10/12 19:02:46;;;;;;;;;;;;;;;;;;2209746;66;2859;-24
2023/10/12 19:05:17;;;;;;;;;;;;;;;;;;2207012;66;4167;-24
2023/10/12 19:07:48;;;;;;;;;;;;;;;;;;2208842;59;2581;-24
2023/10/12 19:10:18;;;;;;;;;;;;;;;;;;2206841;66;2736;-23
2023/10/12 19:12:51;;;;;;;;;;;;;;;;;;2208262;59;2895;-24
2023/10/12 19:15:22;;;;;;;;;;;;;;;;;;2207539;66;3447;-24
2023/10/12 19:17:52;;;;;;;;;;;;;;;;;;2207756;59;4655;-24